createdAt,value
2019-06-01T00:01:52.676Z,2.02
2019-06-01T00:04:21.583Z,2.05
2019-06-01T00:06:50.345Z,2.83
2019-06-01T00:09:19.236Z,2.72
2019-06-01T00:11:50.462Z,2.58
2019-06-01T00:14:19.369Z,2.45
2019-06-01T00:16:48.265Z,1.98
2019-06-01T00:19:17.099Z,1.80
2019-06-01T00:21:47.316Z,2.98
2019-06-01T00:24:16.295Z,2.47
2019-06-01T00:26:45.870Z,1.75
2019-06-01T00:29:14.814Z,1.87
2019-06-01T00:31:45.178Z,1.92
2019-06-01T00:34:14.234Z,1.55
2019-06-01T00:36:43.527Z,3.00
2019-06-01T00:39:12.467Z,1.55
2019-06-01T00:41:41.911Z,2.02
2019-06-01T00:44:10.823Z,2.35
2019-06-01T00:46:39.778Z,2.45
2019-06-01T00:49:08.576Z,2.25
2019-06-01T00:51:37.465Z,1.92
2019-06-01T00:54:06.334Z,1.75
2019-06-01T00:56:35.174Z,2.58
2019-06-01T00:59:03.956Z,1.45
2019-06-01T01:01:32.834Z,1.95
2019-06-01T01:04:01.664Z,2.35
2019-06-01T01:06:30.438Z,3.08
2019-06-01T01:08:59.416Z,1.70
2019-06-01T01:11:28.262Z,1.85
2019-06-01T01:13:57.978Z,1.52
2019-06-01T01:16:26.805Z,1.37
2019-06-01T01:18:55.931Z,2.35
2019-06-01T01:21:24.990Z,4.10
2019-06-01T01:23:54.755Z,1.77
2019-06-01T01:26:23.711Z,2.22
2019-06-01T01:28:52.988Z,1.57
2019-06-01T01:31:22.020Z,1.52
2019-06-01T01:33:51.409Z,3.02
2019-06-01T01:36:20.451Z,2.15
2019-06-01T01:38:50.463Z,2.87
2019-06-01T01:41:19.531Z,2.65
2019-06-01T01:43:48.477Z,2.40
2019-06-01T01:46:17.393Z,1.75
2019-06-01T01:48:48.040Z,3.08
2019-06-01T01:51:17.486Z,2.70
2019-06-01T01:53:48.537Z,2.65
2019-06-01T01:56:17.458Z,2.15
2019-06-01T01:58:46.254Z,2.35
2019-06-01T02:01:22.307Z,2.45
2019-06-01T02:03:45.552Z,2.45
2019-06-01T02:06:14.383Z,2.08
2019-06-01T02:08:43.271Z,3.30
2019-06-01T02:11:12.170Z,1.98
2019-06-01T02:13:40.978Z,1.75
2019-06-01T02:16:09.983Z,2.98
2019-06-01T02:18:38.743Z,1.82
2019-06-01T02:21:07.588Z,2.47
2019-06-01T02:23:36.437Z,1.85
2019-06-01T02:26:05.264Z,2.22
2019-06-01T02:28:34.130Z,1.47
2019-06-01T02:31:04.056Z,2.27
2019-06-01T02:33:33.079Z,2.08
2019-06-01T02:36:03.439Z,1.90
2019-06-01T02:38:32.599Z,1.52
2019-06-01T02:41:03.117Z,1.80
2019-06-01T02:43:32.089Z,4.03
2019-06-01T02:46:02.506Z,3.87
2019-06-01T02:48:31.425Z,2.85
2019-06-01T02:51:01.668Z,2.02
2019-06-01T02:53:30.871Z,2.10
2019-06-01T02:55:59.964Z,2.90
2019-06-01T02:58:28.898Z,1.60
2019-06-01T03:01:36.690Z,2.22
2019-06-01T03:04:09.642Z,2.33
2019-06-01T03:06:41.785Z,2.47
2019-06-01T03:09:10.688Z,2.40
2019-06-01T03:11:40.403Z,2.92
2019-06-01T03:14:09.901Z,2.50
2019-06-01T03:16:40.233Z,3.25
2019-06-01T03:19:09.378Z,1.73
2019-06-01T03:21:38.263Z,2.42
2019-06-01T03:24:08.941Z,2.17
2019-06-01T03:26:45.494Z,2.23
2019-06-01T03:29:18.733Z,1.60
2019-06-01T03:31:47.854Z,1.90
2019-06-01T03:34:16.905Z,1.75
2019-06-01T03:36:45.803Z,2.40
2019-06-01T03:39:14.619Z,2.12
2019-06-01T03:41:43.549Z,2.45
2019-06-01T03:44:13.012Z,2.37
2019-06-01T03:46:42.513Z,4.05
2019-06-01T03:49:11.979Z,2.58
2019-06-01T03:51:41.005Z,1.67
2019-06-01T03:54:10.120Z,2.05
2019-06-01T03:56:39.353Z,2.35
2019-06-01T03:59:09.311Z,2.20
2019-06-01T04:01:38.342Z,2.60
2019-06-01T04:04:07.304Z,2.10
2019-06-01T04:06:36.217Z,3.02
2019-06-01T04:09:07.756Z,2.92
2019-06-01T04:11:36.963Z,4.55
2019-06-01T04:14:07.356Z,2.10
2019-06-01T04:16:36.594Z,3.73
2019-06-01T04:19:06.065Z,2.27
2019-06-01T04:21:35.053Z,4.17
2019-06-01T04:24:04.423Z,5.67
2019-06-01T04:26:33.310Z,3.42
2019-06-01T04:29:02.348Z,2.72
2019-06-01T04:31:31.491Z,2.90
2019-06-01T04:34:00.545Z,2.58
2019-06-01T04:36:29.509Z,4.30
2019-06-01T04:38:59.197Z,4.62
2019-06-01T04:41:28.053Z,7.40
2019-06-01T04:43:56.926Z,10.30
2019-06-01T04:46:25.937Z,9.63
2019-06-01T04:48:54.894Z,4.40
2019-06-01T04:51:23.718Z,8.08
2019-06-01T04:53:52.643Z,5.53
2019-06-01T04:56:21.491Z,4.92
2019-06-01T04:58:51.302Z,4.97
2019-06-01T05:01:20.271Z,4.35
2019-06-01T05:03:49.059Z,4.72
2019-06-01T05:06:17.814Z,5.40
2019-06-01T05:08:46.645Z,6.62
2019-06-01T05:11:16.337Z,5.67
2019-06-01T05:13:45.490Z,4.05
2019-06-01T05:16:14.869Z,5.97
2019-06-01T05:18:44.464Z,9.15
2019-06-01T05:21:16.740Z,7.37
2019-06-01T05:23:46.158Z,3.40
2019-06-01T05:26:15.128Z,4.03
2019-06-01T05:28:44.086Z,4.10
2019-06-01T05:31:20.599Z,2.35
2019-06-01T05:33:43.727Z,7.70
2019-06-01T05:36:14.135Z,4.87
2019-06-01T05:38:43.283Z,2.42
2019-06-01T05:41:13.238Z,5.75
2019-06-01T05:43:42.646Z,4.28
2019-06-01T05:46:11.863Z,4.33
2019-06-01T05:48:41.110Z,4.87
2019-06-01T05:51:13.704Z,3.85
2019-06-01T05:53:42.350Z,3.58
2019-06-01T05:56:12.597Z,2.62
2019-06-01T05:58:41.612Z,2.65
2019-06-01T06:01:10.484Z,4.40
2019-06-01T06:03:40.653Z,2.87
2019-06-01T06:06:09.829Z,2.85
2019-06-01T06:08:38.814Z,4.45
2019-06-01T06:11:07.706Z,3.45
2019-06-01T06:13:36.565Z,3.75
2019-06-01T06:16:05.511Z,4.70
2019-06-01T06:18:34.754Z,4.75
2019-06-01T06:21:03.564Z,8.28
2019-06-01T06:23:32.479Z,7.25
2019-06-01T06:26:01.406Z,5.37
2019-06-01T06:28:30.263Z,4.28
2019-06-01T06:30:59.131Z,6.12
2019-06-01T06:33:27.994Z,6.83
2019-06-01T06:35:58.130Z,3.60
2019-06-01T06:38:27.024Z,4.90
2019-06-01T06:40:55.994Z,4.78
2019-06-01T06:43:32.682Z,9.55
2019-06-01T06:45:55.535Z,5.70
2019-06-01T06:48:25.282Z,4.42
2019-06-01T06:50:54.304Z,3.95
2019-06-01T06:53:32.647Z,6.90
2019-06-01T06:55:56.327Z,4.55
2019-06-01T06:58:26.390Z,3.22
2019-06-01T07:00:55.626Z,6.37
2019-06-01T07:03:25.190Z,7.12
2019-06-01T07:05:55.069Z,3.58
2019-06-01T07:08:24.023Z,4.05
2019-06-01T07:10:52.857Z,5.95
2019-06-01T07:13:23.113Z,5.62
2019-06-01T07:15:52.330Z,5.50
2019-06-01T07:18:21.528Z,4.03
2019-06-01T07:20:50.471Z,5.47
2019-06-01T07:23:19.533Z,6.50
2019-06-01T07:25:48.591Z,4.08
2019-06-01T07:28:17.427Z,2.60
2019-06-01T07:30:50.532Z,7.03
2019-06-01T07:33:16.874Z,3.85
2019-06-01T07:35:45.754Z,3.72
2019-06-01T07:38:14.691Z,3.80
2019-06-01T07:40:43.566Z,5.28
2019-06-01T07:43:12.332Z,5.15
2019-06-01T07:45:41.214Z,5.25
2019-06-01T07:48:10.154Z,5.50
2019-06-01T07:50:39.025Z,4.22
2019-06-01T07:53:07.822Z,4.45
2019-06-01T07:55:36.725Z,7.20
2019-06-01T07:58:06.880Z,7.58
2019-06-01T08:00:35.670Z,3.62
2019-06-01T08:03:04.574Z,4.97
2019-06-01T08:05:33.380Z,5.17
2019-06-01T08:08:02.187Z,4.42
2019-06-01T08:10:31.670Z,4.12
2019-06-01T08:13:21.363Z,5.78
2019-06-01T08:15:50.735Z,6.25
2019-06-01T08:18:19.608Z,4.12
2019-06-01T08:20:48.483Z,6.10
2019-06-01T08:23:17.283Z,6.83
2019-06-01T08:25:46.146Z,6.80
2019-06-01T08:28:15.140Z,5.42
2019-06-01T08:30:44.025Z,5.97
2019-06-01T08:33:12.964Z,5.90
2019-06-01T08:35:41.771Z,7.12
2019-06-01T08:38:10.597Z,7.80
2019-06-01T08:40:39.497Z,6.60
2019-06-01T08:43:08.372Z,7.62
2019-06-01T08:45:37.535Z,9.60
2019-06-01T08:48:06.487Z,6.33
2019-06-01T08:50:35.358Z,7.50
2019-06-01T08:53:04.198Z,6.25
2019-06-01T08:55:34.142Z,4.72
2019-06-01T08:58:03.444Z,6.10
2019-06-01T09:00:32.649Z,5.55
2019-06-01T09:03:01.669Z,4.12
2019-06-01T09:05:31.543Z,6.65
2019-06-01T09:08:00.490Z,6.28
2019-06-01T09:10:29.506Z,4.92
2019-06-01T09:12:58.314Z,5.75
2019-06-01T09:15:27.576Z,5.35
2019-06-01T09:17:56.661Z,5.25
2019-06-01T09:20:25.553Z,3.80
2019-06-01T09:22:54.366Z,4.97
2019-06-01T09:25:23.142Z,6.53
2019-06-01T09:27:51.926Z,3.58
2019-06-01T09:30:20.734Z,4.28
2019-06-01T09:32:49.553Z,5.10
2019-06-01T09:35:18.439Z,5.30
2019-06-01T09:37:47.274Z,4.50
2019-06-01T09:40:16.058Z,7.10
2019-06-01T09:42:44.966Z,5.47
2019-06-01T09:45:13.890Z,4.00
2019-06-01T09:47:42.797Z,4.15
2019-06-01T09:50:12.643Z,5.30
2019-06-01T09:52:41.575Z,4.87
2019-06-01T09:55:10.470Z,6.62
2019-06-01T09:57:39.260Z,9.23
2019-06-01T10:00:09.144Z,5.95
2019-06-01T10:02:38.344Z,9.63
2019-06-01T10:05:07.390Z,7.00
2019-06-01T10:07:37.039Z,6.17
2019-06-01T10:10:06.010Z,10.15
2019-06-01T10:12:35.968Z,5.47
2019-06-01T10:15:05.395Z,5.35
2019-06-01T10:17:35.622Z,7.92
2019-06-01T10:22:35.088Z,6.45
2019-06-01T10:25:04.483Z,7.90
2019-06-01T10:27:34.444Z,7.67
2019-06-01T10:30:03.441Z,3.83
2019-06-01T10:32:32.867Z,4.45
2019-06-01T10:35:03.108Z,4.37
2019-06-01T10:37:33.287Z,7.62
2019-06-01T10:40:02.336Z,4.17
2019-06-01T10:42:32.742Z,5.30
2019-06-01T10:45:01.798Z,4.35
2019-06-01T10:47:31.773Z,3.40
2019-06-01T10:50:01.762Z,5.42
2019-06-01T10:52:31.898Z,5.28
2019-06-01T10:55:00.864Z,3.75
2019-06-01T10:57:29.635Z,4.03
2019-06-01T10:59:58.417Z,6.65
2019-06-01T11:02:29.130Z,7.30
2019-06-01T11:04:57.930Z,9.27
2019-06-01T11:07:26.838Z,24.20
2019-06-01T11:09:55.630Z,19.05
2019-06-01T11:12:24.394Z,20.10
2019-06-01T11:14:53.202Z,10.55
2019-06-01T11:17:21.953Z,11.20
2019-06-01T11:19:50.727Z,11.65
2019-06-01T11:22:19.577Z,9.05
2019-06-01T11:24:48.516Z,9.28
2019-06-01T11:27:17.391Z,8.55
2019-06-01T11:29:50.982Z,6.87
2019-06-01T11:32:16.729Z,6.70
2019-06-01T11:34:46.343Z,6.12
2019-06-01T11:38:12.319Z,6.33
2019-06-01T11:40:44.794Z,6.67
2019-06-01T11:43:14.425Z,5.53
2019-06-01T11:46:06.840Z,8.90
2019-06-01T11:48:37.164Z,8.00
2019-06-01T11:51:06.634Z,7.83
2019-06-01T11:53:37.184Z,3.35
2019-06-01T11:56:06.702Z,3.63
2019-06-01T11:58:36.972Z,4.75
2019-06-01T12:01:06.376Z,4.58
2019-06-01T12:03:35.612Z,5.08
2019-06-01T12:06:04.943Z,3.85
2019-06-01T12:08:34.499Z,4.67
2019-06-01T12:11:06.134Z,6.80
2019-06-01T12:13:59.644Z,8.65
2019-06-01T12:17:16.213Z,4.00
2019-06-01T12:19:46.803Z,4.50
2019-06-01T12:22:16.308Z,5.33
2019-06-01T12:24:47.402Z,6.80
2019-06-01T12:27:30.711Z,2.95
2019-06-01T12:30:02.959Z,4.42
2019-06-01T12:32:38.030Z,6.90
2019-06-01T12:35:10.336Z,3.83
2019-06-01T12:37:58.415Z,6.12
2019-06-01T12:40:16.251Z,4.25
2019-06-01T12:42:45.950Z,8.68
2019-06-01T12:45:22.451Z,4.58
2019-06-01T12:47:54.188Z,4.05
2019-06-01T12:50:20.471Z,5.72
2019-06-01T12:52:50.421Z,6.45
2019-06-01T12:55:22.344Z,4.65
2019-06-01T12:57:51.988Z,6.75
2019-06-01T13:00:21.287Z,5.45
2019-06-01T13:03:07.012Z,4.92
2019-06-01T13:05:28.306Z,7.30
2019-06-01T13:08:02.383Z,5.22
2019-06-01T13:10:30.168Z,2.50
2019-06-01T13:12:59.301Z,3.77
2019-06-01T13:15:28.610Z,3.17
2019-06-01T13:17:58.080Z,5.60
2019-06-01T13:20:27.527Z,3.50
2019-06-01T13:22:57.222Z,6.55
2019-06-01T13:25:26.763Z,3.40
2019-06-01T13:27:57.134Z,7.42
2019-06-01T13:30:26.520Z,4.67
2019-06-01T13:32:57.019Z,8.25
2019-06-01T13:35:26.133Z,6.00
2019-06-01T13:38:10.969Z,4.85
2019-06-01T13:40:27.981Z,5.13
2019-06-01T13:43:01.773Z,6.08
2019-06-01T13:45:34.096Z,6.92
2019-06-01T13:48:07.967Z,3.47
2019-06-01T13:50:40.729Z,4.30
2019-06-01T13:53:09.940Z,5.05
2019-06-01T13:55:39.326Z,5.55
2019-06-01T13:58:08.743Z,5.53
2019-06-01T14:00:38.246Z,7.22
2019-06-01T14:03:08.733Z,5.90
2019-06-01T14:05:40.199Z,6.40
2019-06-01T14:08:09.416Z,5.03
2019-06-01T14:10:42.306Z,3.45
2019-06-01T14:13:11.651Z,4.85
2019-06-01T14:15:45.413Z,9.35
2019-06-01T14:18:16.006Z,4.47
2019-06-01T14:20:45.534Z,10.20
2019-06-01T14:23:23.910Z,7.12
2019-06-01T14:26:01.904Z,3.52
2019-06-01T14:28:33.926Z,20.88
2019-06-01T14:31:03.304Z,10.72
2019-06-01T14:33:32.849Z,13.03
2019-06-01T14:36:24.086Z,21.62
2019-06-01T14:39:01.270Z,21.15
2019-06-01T14:41:36.958Z,13.85
2019-06-01T14:44:08.722Z,8.03
2019-06-01T14:46:54.991Z,12.93
2019-06-01T14:49:20.420Z,8.68
2019-06-01T14:51:53.594Z,3.58
2019-06-01T14:54:22.918Z,6.85
2019-06-01T14:56:52.145Z,11.03
2019-06-01T14:59:24.265Z,6.50
2019-06-01T15:01:58.422Z,7.53
2019-06-01T15:04:28.531Z,9.83
2019-06-01T15:06:58.631Z,8.03
2019-06-01T15:09:34.812Z,6.25
2019-06-01T15:12:03.825Z,7.12
2019-06-01T15:14:32.922Z,6.40
2019-06-01T15:17:02.817Z,10.70
2019-06-01T15:19:32.005Z,4.70
2019-06-01T15:22:03.604Z,9.10
2019-06-01T15:24:33.351Z,13.45
2019-06-01T15:27:05.765Z,9.43
2019-06-01T15:29:35.837Z,6.62
2019-06-01T15:32:11.162Z,10.40
2019-06-01T15:34:40.155Z,11.97
2019-06-01T15:37:12.769Z,13.25
2019-06-01T15:39:41.804Z,8.65
2019-06-01T15:42:10.669Z,6.12
2019-06-01T15:44:45.368Z,6.55
2019-06-01T15:47:14.369Z,7.35
2019-06-01T15:49:43.757Z,6.62
2019-06-01T15:52:20.462Z,11.75
2019-06-01T15:54:52.202Z,12.20
2019-06-01T15:57:21.475Z,9.45
2019-06-01T15:59:50.639Z,13.38
2019-06-01T16:02:19.543Z,9.08
2019-06-01T16:04:48.762Z,8.73
2019-06-01T16:07:17.757Z,10.05
2019-06-01T16:09:46.906Z,7.17
2019-06-01T16:12:15.791Z,8.75
2019-06-01T16:14:45.095Z,23.27
2019-06-01T16:17:14.191Z,12.35
2019-06-01T16:19:43.387Z,16.77
2019-06-01T16:22:13.090Z,13.32
2019-06-01T16:24:42.075Z,10.50
2019-06-01T16:27:32.960Z,21.87
2019-06-01T16:30:14.286Z,24.90
2019-06-01T16:32:50.580Z,31.70
2019-06-01T16:35:19.643Z,37.75
2019-06-01T16:37:48.615Z,27.10
2019-06-01T16:40:21.661Z,26.20
2019-06-01T16:42:51.135Z,27.93
2019-06-01T16:45:22.419Z,19.12
2019-06-01T16:47:51.865Z,20.65
2019-06-01T16:50:20.852Z,13.60
2019-06-01T16:52:49.697Z,17.17
2019-06-01T16:55:18.969Z,11.00
2019-06-01T16:57:48.172Z,11.08
2019-06-01T17:00:17.215Z,10.48
2019-06-01T17:02:46.045Z,11.08
2019-06-01T17:05:14.944Z,11.55
2019-06-01T17:07:44.035Z,15.85
2019-06-01T17:10:25.879Z,8.68
2019-06-01T17:12:45.012Z,9.80
2019-06-01T17:15:14.438Z,11.25
2019-06-01T17:17:43.340Z,8.10
2019-06-01T17:20:43.900Z,6.50
2019-06-01T17:23:27.765Z,5.80
2019-06-01T17:25:48.679Z,8.10
2019-06-01T17:28:17.744Z,11.57
2019-06-01T17:30:46.737Z,6.92
2019-06-01T17:33:17.019Z,5.75
2019-06-01T17:36:00.595Z,7.10
2019-06-01T17:38:29.675Z,6.03
2019-06-01T17:41:02.134Z,9.00
2019-06-01T17:43:31.232Z,8.00
2019-06-01T17:46:00.742Z,9.30
2019-06-01T17:48:29.990Z,5.28
2019-06-01T17:51:00.282Z,7.20
2019-06-01T17:53:31.125Z,7.28
2019-06-01T17:56:00.309Z,8.15
2019-06-01T17:58:31.037Z,8.18
2019-06-01T18:01:01.865Z,8.75
2019-06-01T18:03:31.107Z,10.68
2019-06-01T18:06:01.641Z,6.72
2019-06-01T18:08:30.748Z,7.73
2019-06-01T18:10:59.766Z,6.90
2019-06-01T18:13:28.611Z,4.72
2019-06-01T18:15:58.480Z,7.25
2019-06-01T18:18:27.811Z,7.80
2019-06-01T18:21:02.685Z,6.22
2019-06-01T18:23:33.218Z,5.67
2019-06-01T18:26:02.632Z,5.28
2019-06-01T18:28:39.628Z,4.97
2019-06-01T18:31:08.859Z,5.25
2019-06-01T18:33:38.000Z,7.90
2019-06-01T18:36:08.090Z,5.08
2019-06-01T18:38:37.246Z,6.15
2019-06-01T18:41:16.825Z,5.90
2019-06-01T18:43:40.962Z,4.75
2019-06-01T18:46:10.198Z,7.28
2019-06-01T18:48:41.442Z,4.70
2019-06-01T18:51:12.366Z,5.97
2019-06-01T18:53:44.993Z,5.83
2019-06-01T18:56:17.401Z,3.40
2019-06-01T18:58:55.195Z,4.85
2019-06-01T19:01:26.324Z,5.80
2019-06-01T19:04:01.773Z,6.15
2019-06-01T19:06:30.966Z,7.47
2019-06-01T19:09:00.202Z,7.28
2019-06-01T19:11:35.670Z,5.75
2019-06-01T19:13:59.922Z,3.73
2019-06-01T19:16:28.975Z,3.72
2019-06-01T19:18:59.113Z,4.08
2019-06-01T19:21:28.406Z,7.03
2019-06-01T19:23:57.553Z,5.75
2019-06-01T19:26:28.269Z,5.80
2019-06-01T19:28:57.398Z,10.83
2019-06-01T19:31:26.530Z,8.88
2019-06-01T19:33:55.605Z,13.20
2019-06-01T19:36:24.721Z,15.58
2019-06-01T19:38:54.240Z,10.78
2019-06-01T19:41:23.351Z,9.68
2019-06-01T19:43:52.316Z,9.18
2019-06-01T19:46:21.449Z,11.88
2019-06-01T19:48:50.403Z,5.92
2019-06-01T19:51:19.475Z,4.20
2019-06-01T19:53:48.710Z,8.83
2019-06-01T19:56:20.069Z,5.95
2019-06-01T19:58:51.808Z,7.53
2019-06-01T20:01:21.024Z,7.33
2019-06-01T20:03:51.484Z,6.60
2019-06-01T20:06:20.545Z,5.83
2019-06-01T20:08:49.836Z,8.28
2019-06-01T20:11:19.336Z,10.25
2019-06-01T20:13:50.961Z,8.43
2019-06-01T20:16:20.311Z,28.65
2019-06-01T20:18:49.717Z,19.02
2019-06-01T20:21:20.559Z,23.00
2019-06-01T20:23:49.834Z,18.35
2019-06-01T20:26:19.453Z,21.60
2019-06-01T20:28:48.545Z,15.13
2019-06-01T20:31:17.959Z,22.75
2019-06-01T20:33:47.110Z,23.67
2019-06-01T20:36:16.292Z,21.25
2019-06-01T20:38:45.643Z,17.00
2019-06-01T20:41:15.175Z,12.03
2019-06-01T20:43:45.471Z,7.45
2019-06-01T20:46:14.628Z,14.20
2019-06-01T20:48:43.947Z,9.65
2019-06-01T20:51:13.215Z,14.58
2019-06-01T20:53:42.599Z,8.93
2019-06-01T20:56:13.129Z,9.98
2019-06-01T20:58:42.444Z,9.07
2019-06-01T21:01:11.553Z,12.28
2019-06-01T21:03:40.520Z,10.28
2019-06-01T21:06:09.842Z,10.10
2019-06-01T21:08:39.119Z,8.93
2019-06-01T21:11:08.632Z,6.12
2019-06-01T21:13:40.090Z,8.60
2019-06-01T21:18:37.520Z,8.75
2019-06-01T21:21:08.270Z,4.62
2019-06-01T21:23:37.408Z,11.28
2019-06-01T21:26:10.974Z,5.83
2019-06-01T21:28:40.296Z,7.97
2019-06-01T21:31:09.528Z,7.80
2019-06-01T21:33:38.722Z,7.17
2019-06-01T21:36:07.976Z,6.17
2019-06-01T21:38:38.400Z,8.85
2019-06-01T21:41:09.693Z,6.62
2019-06-01T21:43:38.528Z,9.13
2019-06-01T21:46:07.645Z,6.50
2019-06-01T21:48:36.867Z,6.58
2019-06-01T21:51:06.174Z,6.65
2019-06-01T21:53:35.676Z,10.63
2019-06-01T21:56:05.014Z,7.50
2019-06-01T21:58:35.531Z,6.58
2019-06-01T22:01:07.963Z,6.83
2019-06-01T22:03:37.485Z,7.45
2019-06-01T22:06:06.531Z,5.67
2019-06-01T22:08:35.614Z,4.28
2019-06-01T22:11:07.854Z,4.97
2019-06-01T22:13:36.845Z,5.37
2019-06-01T22:16:07.046Z,6.83
2019-06-01T22:18:36.183Z,4.08
2019-06-01T22:21:05.464Z,10.80
2019-06-01T22:23:35.074Z,5.55
2019-06-01T22:26:04.639Z,4.17
2019-06-01T22:28:34.086Z,4.60
2019-06-01T22:31:03.177Z,3.67
2019-06-01T22:33:32.864Z,5.15
2019-06-01T22:36:03.850Z,4.05
2019-06-01T22:38:32.966Z,4.80
2019-06-01T22:41:02.361Z,6.20
2019-06-01T22:43:45.838Z,4.28
2019-06-01T22:46:08.013Z,3.17
2019-06-01T22:48:40.153Z,4.60
2019-06-01T22:51:09.406Z,4.35
2019-06-01T22:53:48.088Z,4.00
2019-06-01T22:56:17.013Z,3.55
2019-06-01T22:58:46.500Z,4.17
2019-06-01T23:01:16.295Z,3.75
2019-06-01T23:03:45.533Z,3.62
2019-06-01T23:06:14.670Z,4.30
2019-06-01T23:08:43.786Z,3.70
2019-06-01T23:11:13.051Z,5.67
2019-06-01T23:13:52.625Z,3.12
2019-06-01T23:16:13.868Z,4.78
2019-06-01T23:18:43.172Z,3.75
2019-06-01T23:21:12.309Z,3.95
2019-06-01T23:23:41.433Z,5.15
2019-06-01T23:26:11.659Z,3.37
2019-06-01T23:28:40.867Z,4.35
2019-06-01T23:31:26.278Z,4.40
2019-06-01T23:33:55.537Z,3.52
2019-06-01T23:36:24.702Z,5.30
2019-06-01T23:38:53.904Z,4.42
2019-06-01T23:41:23.034Z,3.02
2019-06-01T23:44:07.816Z,4.25
2019-06-01T23:46:22.962Z,3.35
2019-06-01T23:48:52.114Z,3.40
2019-06-01T23:51:25.353Z,3.27
2019-06-01T23:53:54.855Z,4.47
2019-06-01T23:56:24.143Z,3.55
2019-06-01T23:58:53.438Z,4.85
